Jordan, MN

9:17 AM CST on December 26, 2014 (GMT -0600)
RAWS MN VALLEY MN US | Change Station
CLOSE
Current Station
Personal Weather Station
Location: Carver, MN
Elevation: 845 ft
Nearby Weather Stations
Active Advisory: Winter Weather Advisory

Elev 845 ft 44.72 °N, 93.64 °W | Updated 28 minutes ago

Overcast
Overcast
31 °F
Feels Like 24 °F
N
8
Wind Variable Wind from North
Gusts 13.0 mph

Today
High -- | Low -- °F
--% Chance of Precip.
Yesterday
High -- | Low -- °F
Precip. -- in
7:50 AM 4:39 PM
Waxing Crescent, 26% visible
Pressure 30.01 in
Visibility 8.0 miles
Clouds Overcast 900 ft
Windchill 24 °F
Dew Point 29 °F
Humidity 92%
Rainfall 0.00 in
Snow Depth Not available.
UV 0 out of 12
Pollen .10 out of 12
Air Quality Not available.
Flu Activity Not available.
METAR KFCM 261453Z 01010KT 8SM OVC009 M01/M03 A2998 RMK AO2 SLP162 T10061028 51028

More Conditions Fewer Conditions

Pressure 30.01 in
Visibility 8.0 miles
Clouds Overcast 900 ft
Windchill 24 °F
Dew Point 29 °F
Humidity 92%
Rainfall 0.00 in
Snow Depth Not available.
UV 0 out of 12
Pollen .10 out of 12
Air Quality Not available.
Flu Activity Not available.
METAR KFCM 261453Z 01010KT 8SM OVC009 M01/M03 A2998 RMK AO2 SLP162 T10061028 51028

More Conditions Fewer Conditions

10-Day Weather Forecast

Almanac

Astronomy

Dec. 26, 2014 Rise Set
Actual Time
Civil Twilight
Nautical Twilight
Astronomical Twilight
Moon
Length of Visible Light
Length of Day
Tomorrow will be .
, % of the Moon is Illuminated

Today's Extremes

State Highs State Lows

Community

WunderPhotos

Upload Photos

1,780,609 photos uploaded!

WunderBlogs® & News

Nearby

Air Quality

  Air Quality AQ Index Pollutant
Not available.

Snow Depth

Station Depth Elevation

Earthquake Activity

City Distance Mag. Time & Date
Minimum magnitude displayed is 2.5.

Coastal Water Temperatures

Place Temperature

Nearby Weather Stations